Time;durP1;ratioP1;P1;durP2;ratioP2;P2;SDS_P1;SDS_P2;PMS_P1;PMS_P2;Temp;Humidity;BMP_temperature;BMP_pressure;BME280_temperature;BME280_humidity;BME280_pressure;Samples;Min_cycle;Max_cycle;Signal;HPM_P1;HPM_P2
2021/04/23 00:00:26;;;;;;;35.07;24.07;;;;;;;10.56;68.38;99658.64;363057;145;864936;-59
2021/04/23 00:01:28;;;;;;;33.38;24.12;;;;;;;10.58;68.45;99662.07;366062;146;857406;-58
2021/04/23 00:02:30;;;;;;;32.71;23.91;;;;;;;10.58;68.31;99663.82;367884;146;859602;-59
2021/04/23 00:03:43;;;;;;;33.59;23.32;;;;;;;10.54;68.36;99664.73;364137;145;857486;-59
2021/04/23 00:04:45;;;;;;;35.63;24.17;;;;;;;10.53;68.54;99658.69;363320;146;864886;-60
2021/04/23 00:05:48;;;;;;;35.46;24.25;;;;;;;10.48;68.65;99663.94;363099;145;857372;-59
2021/04/23 00:06:53;;;;;;;34.35;23.94;;;;;;;10.47;68.75;99659.63;362297;145;857306;-59
2021/04/23 00:07:55;;;;;;;32.98;23.87;;;;;;;10.47;68.89;99664.81;362278;148;859756;-60
2021/04/23 00:09:00;;;;;;;33.06;24.01;;;;;;;10.50;68.90;99662.19;364468;145;857933;-59
2021/04/23 00:10:05;;;;;;;37.43;24.00;;;;;;;10.52;68.78;99667.33;363044;147;865045;-59
2021/04/23 00:11:07;;;;;;;31.44;22.98;;;;;;;10.51;68.67;99670.79;363330;145;859653;-60
2021/04/23 00:12:12;;;;;;;33.50;22.44;;;;;;;10.48;68.56;99676.00;362806;145;857419;-60
2021/04/23 00:13:14;;;;;;;36.13;24.19;;;;;;;10.40;68.63;99670.94;362354;148;858399;-59
2021/04/23 00:14:17;;;;;;;35.04;23.13;;;;;;;10.31;68.80;99661.50;364703;145;857281;-58
2021/04/23 00:15:20;;;;;;;35.12;22.86;;;;;;;10.25;69.12;99671.08;362357;148;857251;-59
2021/04/23 00:16:24;;;;;;;28.38;19.90;;;;;;;10.23;69.49;99660.73;362644;145;866027;-58
2021/04/23 00:17:26;;;;;;;28.73;19.77;;;;;;;10.24;69.71;99657.27;363288;146;859520;-58
2021/04/23 00:18:28;;;;;;;26.99;18.69;;;;;;;10.28;69.55;99658.95;364196;146;857230;-58
2021/04/23 00:19:30;;;;;;;31.29;21.49;;;;;;;10.32;69.43;99659.78;363299;145;858291;-59
2021/04/23 00:20:35;;;;;;;35.88;22.34;;;;;;;10.33;69.04;99662.34;362910;145;865694;-60
2021/04/23 00:21:37;;;;;;;34.89;22.80;;;;;;;10.24;68.77;99657.27;362666;146;857202;-58
2021/04/23 00:22:39;;;;;;;28.88;20.57;;;;;;;10.20;69.31;99671.11;363684;145;857216;-58
2021/04/23 00:23:40;;;;;;;30.03;21.53;;;;;;;10.18;69.09;99672.86;362795;146;857924;-58
2021/04/23 00:24:42;;;;;;;30.38;21.21;;;;;;;10.18;69.22;99675.45;362143;145;865071;-58
2021/04/23 00:25:44;;;;;;;27.95;20.44;;;;;;;10.20;69.45;99671.98;362899;145;865075;-58
2021/04/23 00:26:46;;;;;;;29.61;19.99;;;;;;;10.28;69.28;99679.65;364212;146;865744;-58
2021/04/23 00:27:48;;;;;;;27.94;19.34;;;;;;;10.32;69.04;99683.91;364401;145;858340;-58
2021/04/23 00:28:49;;;;;;;27.99;19.12;;;;;;;10.37;68.77;99691.64;362195;145;865483;-57
2021/04/23 00:29:51;;;;;;;25.98;18.69;;;;;;;10.40;68.57;99691.64;363104;148;867096;-59
2021/04/23 00:30:53;;;;;;;27.37;18.19;;;;;;;10.44;68.28;99692.45;364022;145;865443;-61
2021/04/23 00:31:55;;;;;;;26.37;19.45;;;;;;;10.45;68.02;99696.75;363152;148;857234;-59
2021/04/23 00:32:57;;;;;;;26.51;18.62;;;;;;;10.48;67.81;99699.30;363591;145;857433;-58
2021/04/23 00:33:59;;;;;;;29.89;20.18;;;;;;;10.48;67.81;99696.71;362327;146;858377;-58
2021/04/23 00:35:01;;;;;;;31.42;22.26;;;;;;;10.49;67.74;99696.71;362693;146;865235;-58
2021/04/23 00:36:04;;;;;;;32.58;21.41;;;;;;;10.50;67.81;99694.96;364445;145;860666;-58
2021/04/23 00:37:06;;;;;;;32.21;20.96;;;;;;;10.47;67.55;99703.64;363361;146;857939;-58
2021/04/23 00:38:11;;;;;;;29.35;20.67;;;;;;;10.41;67.79;99708.01;363460;145;857214;-58
2021/04/23 00:39:13;;;;;;;28.87;21.17;;;;;;;10.38;68.00;99698.53;362537;147;857218;-58
2021/04/23 00:40:27;;;;;;;30.99;21.63;;;;;;;10.36;68.06;99701.13;365191;146;857415;-59
2021/04/23 00:41:31;;;;;;;28.41;20.28;;;;;;;10.36;68.27;99702.88;362838;145;857379;-59
2021/04/23 00:42:33;;;;;;;30.58;20.92;;;;;;;10.37;68.63;99702.00;363006;148;858193;-58
2021/04/23 00:43:38;;;;;;;25.27;19.44;;;;;;;10.36;68.84;99701.13;362814;145;857740;-58
2021/04/23 00:44:40;;;;;;;28.60;20.10;;;;;;;10.36;69.00;99708.88;363692;144;864797;-58
2021/04/23 00:45:41;;;;;;;29.23;19.75;;;;;;;10.35;69.15;99704.58;371090;144;865840;-58
2021/04/23 00:46:43;;;;;;;26.84;18.00;;;;;;;10.36;69.28;99705.45;364103;145;858222;-58
2021/04/23 00:47:46;;;;;;;28.90;20.96;;;;;;;10.37;69.34;99704.58;363302;145;858325;-58
2021/04/23 00:48:48;;;;;;;28.23;19.16;;;;;;;10.37;69.34;99704.58;366368;146;866721;-58
2021/04/23 00:49:51;;;;;;;30.11;19.94;;;;;;;10.40;69.32;99708.88;363078;145;857322;-58
2021/04/23 00:51:09;;;;;;;28.96;18.96;;;;;;;10.41;69.29;99711.47;362251;146;857307;-61
2021/04/23 00:52:11;;;;;;;26.12;19.94;;;;;;;10.42;69.23;99710.59;365963;145;857197;-58
2021/04/23 00:53:27;;;;;;;28.79;19.04;;;;;;;10.45;69.25;99712.27;363489;146;857890;-58
2021/04/23 00:54:29;;;;;;;26.56;19.85;;;;;;;10.46;69.17;99704.52;363101;146;859180;-60
2021/04/23 00:55:31;;;;;;;28.91;19.10;;;;;;;10.47;69.10;99698.45;362889;145;858185;-61
2021/04/23 00:56:38;;;;;;;25.34;17.96;;;;;;;10.48;69.13;99699.30;363758;146;860824;-61
2021/04/23 00:57:39;;;;;;;28.25;19.14;;;;;;;10.47;69.01;99701.05;362568;145;860487;-60
2021/04/23 00:58:41;;;;;;;27.59;19.74;;;;;;;10.48;69.00;99707.94;362311;145;857932;-58
2021/04/23 00:59:43;;;;;;;25.06;17.90;;;;;;;10.50;68.99;99701.02;362657;146;865456;-58
2021/04/23 01:00:47;;;;;;;25.02;17.89;;;;;;;10.52;68.84;99700.98;363186;145;865612;-58
2021/04/23 01:02:01;;;;;;;25.95;18.95;;;;;;;10.52;68.84;99700.98;362417;144;857290;-58
2021/04/23 01:03:03;;;;;;;25.97;18.61;;;;;;;10.54;68.71;99703.56;362145;145;857774;-58
2021/04/23 01:04:06;;;;;;;29.24;18.93;;;;;;;10.51;68.69;99704.44;362594;145;857965;-58
2021/04/23 01:05:09;;;;;;;30.08;19.19;;;;;;;10.49;68.68;99699.30;362327;148;857868;-58
2021/04/23 01:06:14;;;;;;;28.42;20.87;;;;;;;10.50;68.70;99710.49;362099;145;857521;-58
2021/04/23 01:07:16;;;;;;;29.37;20.62;;;;;;;10.45;68.58;99714.86;362289;148;857309;-58
2021/04/23 01:08:19;;;;;;;30.79;19.99;;;;;;;10.42;68.78;99713.19;363543;145;857833;-59
2021/04/23 01:09:22;;;;;;;31.96;20.88;;;;;;;10.38;68.80;99709.72;362242;147;857670;-58
2021/04/23 01:10:24;;;;;;;36.85;23.19;;;;;;;10.40;68.82;99714.06;363535;144;857375;-58
2021/04/23 01:11:26;;;;;;;35.51;23.90;;;;;;;10.38;68.77;99711.47;362582;145;857853;-58
2021/04/23 01:12:28;;;;;;;34.40;24.16;;;;;;;10.35;68.78;99711.50;363232;145;865135;-58
2021/04/23 01:13:34;;;;;;;38.86;25.01;;;;;;;10.33;68.72;99711.50;363207;147;858894;-59
2021/04/23 01:14:36;;;;;;;31.59;21.17;;;;;;;10.31;68.79;99710.67;363405;145;865412;-59
2021/04/23 01:15:38;;;;;;;33.49;22.57;;;;;;;10.30;68.84;99708.11;363693;146;857333;-59
2021/04/23 01:16:40;;;;;;;36.93;23.71;;;;;;;10.30;68.88;99713.28;363534;146;857372;-59
2021/04/23 01:17:42;;;;;;;33.23;21.92;;;;;;;10.31;68.90;99709.83;363634;146;857225;-59
2021/04/23 01:18:44;;;;;;;34.84;23.33;;;;;;;10.30;68.90;99713.28;362339;148;859000;-59
2021/04/23 01:19:45;;;;;;;36.76;24.21;;;;;;;10.29;68.92;99707.23;363304;145;866649;-59
2021/04/23 01:20:48;;;;;;;31.11;21.68;;;;;;;10.29;68.92;99707.23;362199;146;864822;-59
2021/04/23 01:21:50;;;;;;;33.23;21.71;;;;;;;10.29;68.94;99717.59;362385;148;857663;-59
2021/04/23 01:22:51;;;;;;;30.35;20.64;;;;;;;;;;363397;145;859135;-58
2021/04/23 01:23:53;;;;;;;32.77;22.26;;;;;;;;;;368107;146;865998;-58
2021/04/23 01:24:55;;;;;;;34.49;21.33;;;;;;;;;;362490;145;865217;-58
2021/04/23 01:25:57;;;;;;;33.12;21.76;;;;;;;;;;363710;145;858961;-59
2021/04/23 01:26:58;;;;;;;22.94;16.12;;;;;;;;;;362740;146;857565;-59
2021/04/23 01:28:00;;;;;;;29.85;19.61;;;;;;;;;;363052;144;865634;-59
2021/04/23 01:29:02;;;;;;;29.64;20.50;;;;;;;;;;362293;145;857354;-59
2021/04/23 01:30:05;;;;;;;18.51;14.57;;;;;;;;;;362215;148;857848;-59
2021/04/23 01:31:08;;;;;;;21.46;15.55;;;;;;;;;;363055;145;864988;-59
2021/04/23 01:32:10;;;;;;;25.54;18.61;;;;;;;;;;363292;148;859712;-58
2021/04/23 01:33:11;;;;;;;24.11;16.60;;;;;;;;;;364021;145;857334;-58
2021/04/23 01:34:14;;;;;;;25.81;16.99;;;;;;;;;;367298;145;857389;-59
2021/04/23 01:35:17;;;;;;;22.27;16.58;;;;;;;;;;364753;146;866720;-59
2021/04/23 01:36:19;;;;;;;21.26;15.94;;;;;;;;;;361423;145;865225;-59
2021/04/23 01:37:21;;;;;;;22.51;16.48;;;;;;;;;;362656;147;860993;-59
2021/04/23 01:38:23;;;;;;;21.94;16.26;;;;;;;;;;362276;148;865064;-59
2021/04/23 01:39:25;;;;;;;21.08;15.12;;;;;;;;;;362695;145;857819;-59
2021/04/23 01:40:27;;;;;;;24.35;16.89;;;;;;;;;;362266;146;866648;-61
2021/04/23 01:41:29;;;;;;;28.79;19.94;;;;;;;;;;363686;146;857222;-59
2021/04/23 01:42:30;;;;;;;20.54;15.44;;;;;;;;;;362528;145;858714;-59
2021/04/23 01:43:32;;;;;;;27.60;17.38;;;;;;;;;;362477;146;857459;-59
2021/04/23 01:44:34;;;;;;;17.63;13.49;;;;;;;;;;362367;145;865738;-59
2021/04/23 01:45:35;;;;;;;17.80;14.27;;;;;;;;;;363466;145;857354;-59
2021/04/23 01:46:38;;;;;;;23.85;16.18;;;;;;;;;;366300;145;864755;-59
2021/04/23 01:47:39;;;;;;;29.73;19.33;;;;;;;;;;362355;145;857170;-59
2021/04/23 01:48:41;;;;;;;28.77;18.91;;;;;;;;;;363198;147;859959;-59
2021/04/23 01:49:42;;;;;;;24.59;18.33;;;;;;;;;;362734;145;859218;-59
2021/04/23 01:50:45;;;;;;;21.35;15.65;;;;;;;;;;362284;145;866113;-59
2021/04/23 01:51:54;;;;;;;20.39;15.92;;;;;;;;;;362863;146;858782;-59
2021/04/23 01:52:55;;;;;;;16.41;12.84;;;;;;;;;;354707;148;865032;-59
2021/04/23 01:53:57;;;;;;;18.60;14.41;;;;;;;;;;363434;146;857956;-59
2021/04/23 01:54:59;;;;;;;16.76;13.84;;;;;;;;;;362248;145;866314;-59
2021/04/23 01:56:00;;;;;;;16.92;12.85;;;;;;;;;;363842;145;865213;-59
2021/04/23 01:57:03;;;;;;;19.77;14.23;;;;;;;;;;363192;147;857483;-59
2021/04/23 01:58:04;;;;;;;30.33;19.61;;;;;;;;;;362270;145;857428;-59
2021/04/23 01:59:07;;;;;;;20.56;15.64;;;;;;;;;;368664;145;857205;-59
2021/04/23 02:00:10;;;;;;;23.50;15.39;;;;;;;;;;365206;146;857509;-59
2021/04/23 02:01:12;;;;;;;11.17;8.46;;;;;;;;;;363610;145;866387;-58
2021/04/23 02:02:14;;;;;;;14.96;7.16;;;;;;;;;;362230;148;857347;-60
2021/04/23 02:03:16;;;;;;;9.55;7.39;;;;;;;;;;362244;146;860251;-59
2021/04/23 02:04:18;;;;;;;11.97;7.75;;;;;;;;;;365972;144;857744;-59
2021/04/23 02:05:20;;;;;;;8.81;6.20;;;;;;;;;;371727;144;858393;-58
2021/04/23 02:06:22;;;;;;;11.55;6.56;;;;;;;;;;366379;145;858423;-57
2021/04/23 02:07:23;;;;;;;9.73;6.09;;;;;;;;;;366898;146;857363;-58
2021/04/23 02:08:26;;;;;;;15.63;5.73;;;;;;;;;;362732;146;865041;-58
2021/04/23 02:09:27;;;;;;;7.49;4.97;;;;;;;;;;362756;145;866833;-58
2021/04/23 02:10:31;;;;;;;6.80;4.55;;;;;;;;;;363071;146;857130;-58
2021/04/23 02:11:32;;;;;;;5.84;4.54;;;;;;;;;;362577;145;857340;-58
2021/04/23 02:12:34;;;;;;;7.12;5.04;;;;;;;;;;362626;145;857218;-59
2021/04/23 02:13:36;;;;;;;6.99;4.86;;;;;;;;;;363042;148;859565;-58
2021/04/23 02:14:38;;;;;;;6.65;4.82;;;;;;;;;;363347;145;859356;-59
2021/04/23 02:15:39;;;;;;;6.81;4.19;;;;;;;;;;362782;148;857685;-59
2021/04/23 02:16:41;;;;;;;7.89;4.79;;;;;;;;;;362920;145;857333;-59
2021/04/23 02:17:43;;;;;;;6.91;4.46;;;;;;;;;;363729;145;860224;-59
2021/04/23 02:18:45;;;;;;;7.58;4.86;;;;;;;;;;367143;146;865255;-59
2021/04/23 02:19:46;;;;;;;7.60;4.87;;;;;;;;;;362183;145;864906;-59
2021/04/23 02:20:49;;;;;;;8.43;4.77;;;;;;;;;;367017;145;864784;-59
2021/04/23 02:21:51;;;;;;;7.17;4.28;;;;;;;;;;362413;148;857257;-58
2021/04/23 02:22:53;;;;;;;5.64;3.56;;;;;;;;;;362224;145;857312;-58
2021/04/23 02:23:54;;;;;;;7.49;5.03;;;;;;;;;;362166;148;867227;-59
2021/04/23 02:24:56;;;;;;;11.34;5.46;;;;;;;;;;362248;145;865137;-59
2021/04/23 02:25:58;;;;;;;7.91;4.96;;;;;;;;;;362713;145;865239;-59
2021/04/23 02:26:59;;;;;;;6.84;4.68;;;;;;;;;;362329;148;859675;-59
2021/04/23 02:28:01;;;;;;;5.50;4.39;;;;;;;;;;363386;145;857870;-59
2021/04/23 02:29:04;;;;;;;9.64;4.53;;;;;;;;;;363298;148;859237;-59
2021/04/23 02:30:11;;;;;;;6.44;4.43;;;;;;;;;;363349;146;865960;-59
2021/04/23 02:31:14;;;;;;;9.17;5.25;;;;;;;;;;362610;145;859046;-59
2021/04/23 02:32:16;;;;;;;4.99;4.42;;;;;;;;;;367242;146;857983;-60
2021/04/23 02:33:18;;;;;;;7.53;4.72;;;;;;;;;;364922;145;858796;-59
2021/04/23 02:34:21;;;;;;;8.98;4.53;;;;;;;;;;367644;146;857340;-59
2021/04/23 02:35:23;;;;;;;8.17;4.63;;;;;;;;;;368451;146;857330;-59
2021/04/23 02:36:25;;;;;;;4.40;3.23;;;;;;;;;;363504;145;865388;-59
2021/04/23 02:37:26;;;;;;;6.14;4.55;;;;;;;;;;363694;148;857225;-59
2021/04/23 02:38:30;;;;;;;8.57;4.78;;;;;;;;;;362990;146;866620;-59
2021/04/23 02:39:31;;;;;;;9.32;4.92;;;;;;;;;;363094;145;858984;-59
2021/04/23 02:40:33;;;;;;;8.37;4.37;;;;;;;;;;362506;147;857286;-59
2021/04/23 02:41:35;;;;;;;7.86;4.89;;;;;;;;;;362867;145;858310;-60
2021/04/23 02:42:37;;;;;;;6.24;4.46;;;;;;;;;;364107;145;867001;-58
2021/04/23 02:43:39;;;;;;;10.81;4.79;;;;;;;;;;362098;148;866086;-59
2021/04/23 02:44:41;;;;;;;7.89;4.44;;;;;;;;;;363517;145;859586;-59
2021/04/23 02:45:42;;;;;;;8.13;4.29;;;;;;;;;;362173;147;865282;-59
2021/04/23 02:46:44;;;;;;;7.49;4.01;;;;;;;;;;362498;145;858708;-58
2021/04/23 02:47:46;;;;;;;7.79;4.84;;;;;;;;;;362973;145;864891;-59
2021/04/23 02:48:47;;;;;;;7.32;4.02;;;;;;;;;;362299;148;865755;-59
2021/04/23 02:49:49;;;;;;;7.62;4.21;;;;;;;;;;363288;144;866438;-59
2021/04/23 03:05:05;;;;;;;8.71;4.16;;;;;;;6.78;68.02;99855.05;373643;142;869900;-60
2021/04/23 03:06:07;;;;;;;7.84;4.53;;;;;;;6.72;67.68;99863.57;367258;145;857535;-60
2021/04/23 03:07:09;;;;;;;9.18;4.52;;;;;;;6.70;67.36;99860.12;362731;145;857293;-59
2021/04/23 03:08:11;;;;;;;6.49;4.08;;;;;;;6.72;67.68;99862.73;363666;147;857184;-59
2021/04/23 03:09:13;;;;;;;5.93;4.34;;;;;;;6.77;67.85;99870.45;363879;145;864795;-59
2021/04/23 03:10:17;;;;;;;9.08;4.53;;;;;;;6.79;67.34;99874.78;363513;145;857743;-59
2021/04/23 03:11:21;;;;;;;6.91;4.38;;;;;;;6.27;68.20;99876.09;366676;145;857724;-59
2021/04/23 03:12:23;;;;;;;7.05;4.34;;;;;;;6.26;68.99;99868.38;363856;145;857483;-58
2021/04/23 03:13:26;;;;;;;9.90;3.99;;;;;;;5.89;69.82;99873.16;362503;147;858261;-58
2021/04/23 03:14:27;;;;;;;11.21;4.68;;;;;;;6.13;70.51;99877.69;362399;145;857721;-58
2021/04/23 03:15:29;;;;;;;5.09;3.49;;;;;;;6.29;69.91;99884.68;363875;145;857546;-59
2021/04/23 03:16:32;;;;;;;5.28;3.43;;;;;;;6.24;69.23;99891.49;364809;146;866013;-59
2021/04/23 03:17:33;;;;;;;7.53;3.65;;;;;;;6.31;70.03;99881.26;364495;145;858228;-58
2021/04/23 03:18:37;;;;;;;4.27;2.73;;;;;;;6.39;69.49;99892.50;362298;146;857542;-58
2021/04/23 03:19:39;;;;;;;5.98;3.46;;;;;;;6.47;69.33;99889.97;361081;149;858198;-59
2021/04/23 03:20:41;;;;;;;6.58;3.02;;;;;;;6.46;68.32;99889.13;362861;145;857243;-59
2021/04/23 03:21:43;;;;;;;5.73;3.25;;;;;;;6.42;68.31;99884.81;364695;146;857797;-58
2021/04/23 03:22:45;;;;;;;8.75;3.47;;;;;;;5.69;70.44;99896.91;360315;146;864781;-58
2021/04/23 03:23:46;;;;;;;5.87;3.13;;;;;;;5.99;72.57;99887.82;362845;145;857316;-59
2021/04/23 03:24:48;;;;;;;4.99;2.22;;;;;;;5.77;72.20;99890.14;362520;146;857272;-59
2021/04/23 03:25:51;;;;;;;6.31;2.53;;;;;;;5.92;72.64;99884.31;363390;146;864891;-59
2021/04/23 03:26:53;;;;;;;4.05;2.45;;;;;;;6.08;72.55;99889.63;362554;145;864964;-59
2021/04/23 03:27:54;;;;;;;4.09;2.21;;;;;;;6.06;71.57;99886.19;362845;147;865383;-60
2021/04/23 03:28:56;;;;;;;4.34;2.22;;;;;;;6.17;72.41;99886.30;363971;144;865024;-60
2021/04/23 03:29:58;;;;;;;7.08;2.07;;;;;;;6.31;71.00;99891.55;362866;144;864951;-59
2021/04/23 03:31:00;;;;;;;5.33;2.59;;;;;;;6.47;70.63;99884.83;363178;146;864989;-60
2021/04/23 03:32:02;;;;;;;3.33;2.21;;;;;;;6.52;70.12;99893.45;363082;145;859114;-60
2021/04/23 03:33:04;;;;;;;3.23;2.12;;;;;;;6.39;70.17;99895.08;363603;145;858444;-60
2021/04/23 03:34:06;;;;;;;5.07;2.26;;;;;;;6.40;70.08;99887.35;364444;146;864970;-59
2021/04/23 03:35:09;;;;;;;4.56;2.04;;;;;;;6.63;69.96;99891.81;362699;145;858374;-60
2021/04/23 03:36:12;;;;;;;5.11;2.45;;;;;;;6.81;70.09;99892.78;363746;144;866347;-59
2021/04/23 03:37:13;;;;;;;6.83;2.67;;;;;;;6.77;68.71;99902.22;364930;146;857437;-59
2021/04/23 03:38:15;;;;;;;4.23;2.24;;;;;;;6.94;68.76;99897.19;363658;145;857402;-60
2021/04/23 03:39:17;;;;;;;5.39;2.58;;;;;;;6.99;68.47;99897.20;362538;148;864866;-59
2021/04/23 03:40:22;;;;;;;4.39;2.41;;;;;;;6.88;67.40;99902.27;362803;144;864908;-59
2021/04/23 03:41:26;;;;;;;5.87;2.67;;;;;;;6.82;68.90;99902.23;362991;144;860834;-59
2021/04/23 03:42:28;;;;;;;4.63;2.98;;;;;;;6.92;68.82;99904.05;362459;147;866568;-59
2021/04/23 03:43:30;;;;;;;5.61;2.75;;;;;;;7.01;68.79;99903.22;362503;145;857319;-60
2021/04/23 03:44:32;;;;;;;6.18;2.84;;;;;;;7.06;68.74;99905.84;362960;145;859165;-60
2021/04/23 03:45:33;;;;;;;5.02;3.36;;;;;;;7.08;68.48;99904.13;362418;148;866855;-59
2021/04/23 03:46:35;;;;;;;6.65;3.21;;;;;;;7.05;68.15;99902.38;362357;145;864916;-60
2021/04/23 03:47:37;;;;;;;7.04;3.32;;;;;;;;;;363092;145;857298;-60
2021/04/23 03:48:39;;;;;;;6.85;3.36;;;;;;;;;;362657;147;864910;-60
2021/04/23 03:49:41;;;;;;;11.45;4.05;;;;;;;;;;362383;144;864830;-60
2021/04/23 03:50:43;;;;;;;5.83;3.50;;;;;;;;;;362921;146;857653;-60
2021/04/23 03:51:44;;;;;;;8.73;3.57;;;;;;;;;;362672;144;857210;-60
2021/04/23 03:52:46;;;;;;;8.82;3.89;;;;;;;;;;362361;146;867037;-60
2021/04/23 03:53:48;;;;;;;5.10;3.34;;;;;;;;;;362755;144;858945;-60
2021/04/23 03:54:49;;;;;;;6.86;4.04;;;;;;;;;;363167;145;863580;-60
2021/04/23 03:55:51;;;;;;;6.77;3.62;;;;;;;;;;363718;144;863741;-60
2021/04/23 03:56:53;;;;;;;6.52;3.85;;;;;;;;;;362852;148;856572;-59
2021/04/23 03:57:55;;;;;;;6.38;3.42;;;;;;;;;;363103;145;856106;-60
2021/04/23 03:58:57;;;;;;;7.28;3.85;;;;;;;;;;362676;145;863859;-60
2021/04/23 03:59:58;;;;;;;7.09;3.74;;;;;;;;;;362908;146;856285;-60
2021/04/23 04:01:01;;;;;;;8.11;4.06;;;;;;;;;;363794;144;863992;-59
2021/04/23 04:02:03;;;;;;;6.95;4.01;;;;;;;;;;364623;146;863898;-60
2021/04/23 04:05:02;;;;;;;7.07;3.85;;;;;;;7.00;67.42;99911.80;380366;139;874669;-59
2021/04/23 04:06:05;;;;;;;11.20;4.52;;;;;;;6.95;67.64;99916.05;371845;144;856528;-59
2021/04/23 04:07:07;;;;;;;7.74;4.11;;;;;;;6.96;67.28;99918.66;371536;141;866965;-59
2021/04/23 04:08:08;;;;;;;8.23;4.14;;;;;;;6.97;67.34;99914.34;369601;144;858967;-62
2021/04/23 04:09:10;;;;;;;6.51;3.62;;;;;;;6.96;67.45;99922.92;362787;145;866532;-59
2021/04/23 04:10:13;;;;;;;7.47;3.96;;;;;;;6.99;67.62;99923.82;369233;143;864880;-58
2021/04/23 04:11:15;;;;;;;6.14;3.50;;;;;;;7.01;67.22;99919.55;366347;147;857265;-59
2021/04/23 04:12:17;;;;;;;6.21;4.32;;;;;;;6.97;66.81;99914.34;368049;144;857704;-59
2021/04/23 04:13:18;;;;;;;9.61;4.54;;;;;;;7.01;67.34;99918.67;371653;143;857226;-59
2021/04/23 04:14:20;;;;;;;6.71;4.25;;;;;;;7.00;67.70;99916.94;371221;144;865711;-59
2021/04/23 04:15:23;;;;;;;6.62;3.66;;;;;;;7.00;67.70;99916.94;370860;141;864886;-59
2021/04/23 04:16:26;;;;;;;9.18;4.27;;;;;;;7.03;67.34;99916.96;367877;141;865347;-59
2021/04/23 04:17:27;;;;;;;7.98;4.22;;;;;;;7.01;67.19;99908.37;372599;144;859264;-60
2021/04/23 04:18:30;;;;;;;8.37;4.11;;;;;;;7.05;67.37;99906.69;371548;142;858022;-59
2021/04/23 04:19:32;;;;;;;6.66;4.17;;;;;;;7.05;66.89;99906.69;372995;141;860589;-59
2021/04/23 04:20:38;;;;;;;7.78;4.03;;;;;;;7.07;67.13;99916.13;370448;141;860636;-59
2021/04/23 04:21:40;;;;;;;5.63;3.82;;;;;;;7.09;67.17;99911.00;371166;142;857412;-60
2021/04/23 04:22:41;;;;;;;7.95;3.79;;;;;;;7.12;66.91;99917.02;370390;144;857222;-60
2021/04/23 04:23:43;;;;;;;7.02;3.65;;;;;;;7.14;67.10;99914.46;372014;143;857416;-60
2021/04/23 04:24:45;;;;;;;8.32;4.05;;;;;;;7.14;66.69;99912.73;369850;144;859517;-61
2021/04/23 04:25:49;;;;;;;10.05;4.59;;;;;;;7.16;66.99;99911.03;369791;143;866546;-60
2021/04/23 04:26:52;;;;;;;8.99;4.31;;;;;;;7.19;66.59;99910.20;370567;143;859428;-61
2021/04/23 04:27:55;;;;;;;6.57;4.09;;;;;;;7.06;66.72;99913.56;372133;144;858649;-59
2021/04/23 04:28:56;;;;;;;7.20;4.15;;;;;;;7.06;67.25;99910.98;370369;143;857424;-62
2021/04/23 04:29:58;;;;;;;6.12;3.86;;;;;;;7.05;67.57;99914.41;367977;144;857435;-62
2021/04/23 04:31:00;;;;;;;8.09;4.49;;;;;;;7.09;67.35;99916.16;367906;144;865004;-60
2021/04/23 04:32:02;;;;;;;7.29;3.71;;;;;;;7.12;67.61;99919.59;369075;143;857473;-59
2021/04/23 04:33:04;;;;;;;8.10;4.15;;;;;;;7.20;67.05;99918.77;372099;143;866802;-61
2021/04/23 04:34:07;;;;;;;7.55;4.21;;;;;;;7.26;67.21;99919.68;372971;144;858884;-60
2021/04/23 04:35:10;;;;;;;9.45;4.61;;;;;;;7.33;67.30;99912.83;372411;144;858828;-62
2021/04/23 04:36:12;;;;;;;7.98;4.08;;;;;;;7.41;67.36;99908.56;371689;143;864966;-62
2021/04/23 04:37:14;;;;;;;7.22;3.96;;;;;;;7.50;66.67;99918.06;372638;144;858146;-61
2021/04/23 04:38:16;;;;;;;8.72;4.20;;;;;;;7.53;66.10;99912.92;372226;144;859455;-61
2021/04/23 04:39:19;;;;;;;8.49;4.35;;;;;;;7.58;66.34;99913.80;372153;144;865120;-65
2021/04/23 04:40:22;;;;;;;8.12;4.58;;;;;;;7.65;66.33;99913.83;370798;144;857748;-65
2021/04/23 04:41:24;;;;;;;8.05;3.96;;;;;;;7.66;65.35;99918.13;371206;144;857277;-61
2021/04/23 04:42:26;;;;;;;7.14;3.95;;;;;;;7.52;65.30;99920.66;371995;144;858671;-60
2021/04/23 04:43:28;;;;;;;5.21;4.10;;;;;;;7.36;66.12;99930.02;371297;144;858396;-61
2021/04/23 04:44:29;;;;;;;7.61;3.94;;;;;;;7.37;66.98;99931.75;370263;144;865053;-60
2021/04/23 04:45:31;;;;;;;11.24;4.20;;;;;;;7.41;66.65;99925.75;368686;144;865545;-60
2021/04/23 04:46:34;;;;;;;10.57;4.39;;;;;;;7.49;66.81;99930.95;366038;146;857620;-61
2021/04/23 04:47:36;;;;;;;6.45;4.21;;;;;;;7.48;65.97;99930.08;367796;143;857265;-60
2021/04/23 04:48:38;;;;;;;8.35;4.01;;;;;;;7.44;66.38;99930.92;367195;144;865764;-59
2021/04/23 04:49:40;;;;;;;7.97;4.14;;;;;;;7.48;66.37;99932.66;369672;144;857267;-60
2021/04/23 04:50:53;;;;;;;9.68;4.19;;;;;;;7.51;66.32;99924.94;371050;144;857301;-60
2021/04/23 04:51:56;;;;;;;8.13;3.89;;;;;;;7.51;66.11;99932.67;370731;144;857212;-64
2021/04/23 04:52:58;;;;;;;8.56;4.17;;;;;;;7.48;66.08;99930.08;362323;147;857716;-61
2021/04/23 04:54:00;;;;;;;5.53;4.01;;;;;;;7.50;66.49;99930.11;356469;147;858094;-61
2021/04/23 04:55:05;;;;;;;7.75;3.98;;;;;;;7.51;66.18;99934.41;370305;144;866679;-63
2021/04/23 04:56:07;;;;;;;10.71;4.55;;;;;;;7.58;66.44;99934.41;370666;143;856375;-61
2021/04/23 04:57:09;;;;;;;8.55;4.26;;;;;;;7.62;66.34;99925.00;372475;144;857306;-63
2021/04/23 04:58:12;;;;;;;8.32;4.76;;;;;;;7.70;66.40;99935.31;367790;144;857166;-64
2021/04/23 04:59:14;;;;;;;6.60;3.94;;;;;;;7.74;66.14;99935.34;364075;147;864822;-61
2021/04/23 05:00:17;;;;;;;7.61;4.33;;;;;;;7.78;65.95;99935.36;363631;145;857297;-63
2021/04/23 05:01:19;;;;;;;5.85;3.99;;;;;;;7.81;65.47;99936.21;368971;143;857233;-62
2021/04/23 05:02:20;;;;;;;10.36;4.17;;;;;;;7.82;65.17;99930.20;368245;144;857831;-63
2021/04/23 05:03:22;;;;;;;5.61;3.69;;;;;;;7.83;65.10;99934.50;372975;144;857155;-59
2021/04/23 05:04:24;;;;;;;8.47;4.34;;;;;;;7.87;65.23;99930.23;370134;144;864844;-61
2021/04/23 05:05:26;;;;;;;5.47;3.94;;;;;;;7.89;64.98;99929.36;369367;144;859030;-62
2021/04/23 05:06:30;;;;;;;7.22;4.45;;;;;;;7.84;64.43;99925.91;370554;144;865611;-61
2021/04/23 05:07:31;;;;;;;6.51;4.21;;;;;;;7.80;64.66;99926.76;361311;146;857303;-62
2021/04/23 05:08:33;;;;;;;7.04;4.03;;;;;;;7.74;64.64;99927.62;358275;148;864788;-61
2021/04/23 05:09:35;;;;;;;8.07;4.26;;;;;;;7.73;65.07;99930.17;358586;147;858905;-61
2021/04/23 05:10:39;;;;;;;6.80;4.34;;;;;;;7.75;65.18;99931.04;359560;147;859023;-61
2021/04/23 05:11:41;;;;;;;10.43;3.93;;;;;;;7.80;65.28;99931.06;356218;148;857157;-61
2021/04/23 05:12:43;;;;;;;6.12;3.89;;;;;;;7.88;65.31;99929.38;357714;147;859010;-61
2021/04/23 05:13:45;;;;;;;7.45;3.99;;;;;;;7.95;64.75;99935.39;361278;148;866720;-61
2021/04/23 05:14:46;;;;;;;6.31;4.01;;;;;;;8.03;65.01;99939.72;357721;148;864827;-60
2021/04/23 05:15:48;;;;;;;6.64;3.74;;;;;;;8.10;64.92;99940.61;358850;147;865011;-61
2021/04/23 05:16:53;;;;;;;10.61;4.65;;;;;;;8.11;64.12;99939.75;357599;150;864999;-63
2021/04/23 05:17:55;;;;;;;6.12;3.82;;;;;;;8.12;64.65;99945.75;358138;147;858911;-62
2021/04/23 05:18:57;;;;;;;10.29;4.29;;;;;;;8.14;64.09;99937.18;361691;147;857419;-63
2021/04/23 05:19:59;;;;;;;6.76;4.04;;;;;;;8.18;64.14;99935.45;359967;148;859163;-62
2021/04/23 05:21:00;;;;;;;6.92;3.91;;;;;;;7.96;65.13;99932.83;356487;147;866668;-61
2021/04/23 05:22:02;;;;;;;5.21;3.86;;;;;;;7.85;64.80;99942.25;361680;147;857493;-63
2021/04/23 05:23:04;;;;;;;8.65;3.99;;;;;;;7.74;65.23;99934.47;362229;148;864945;-63
2021/04/23 05:24:07;;;;;;;7.52;4.41;;;;;;;7.67;66.08;99936.19;358395;147;865035;-63
2021/04/23 05:25:13;;;;;;;7.61;4.21;;;;;;;7.73;66.48;99937.91;362101;147;857241;-63
2021/04/23 05:26:15;;;;;;;7.03;4.31;;;;;;;7.86;67.03;99941.39;357386;148;864766;-63
2021/04/23 05:27:16;;;;;;;8.92;4.06;;;;;;;7.97;66.35;99934.55;361080;147;858722;-63